createdAt,value
2022-10-04T00:01:49.346Z,2.50
2022-10-04T00:07:03.665Z,3.20
2022-10-04T00:10:05.262Z,2.80
2022-10-04T00:12:36.613Z,2.30
2022-10-04T00:15:23.355Z,2.60
2022-10-04T00:18:13.401Z,2.40
2022-10-04T00:20:52.027Z,2.60
2022-10-04T00:23:42.355Z,2.30
2022-10-04T00:26:23.815Z,2.00
2022-10-04T00:28:53.662Z,5.50
2022-10-04T00:31:27.913Z,2.40
2022-10-04T00:37:17.991Z,2.50
2022-10-04T00:39:57.889Z,2.40
2022-10-04T00:42:59.237Z,2.40
2022-10-04T00:45:44.301Z,2.60
2022-10-04T00:48:31.716Z,2.60
2022-10-04T00:51:26.721Z,2.60
2022-10-04T00:54:45.303Z,2.70
2022-10-04T00:57:23.412Z,2.30
2022-10-04T01:00:05.520Z,2.60
2022-10-04T01:02:46.988Z,2.60
2022-10-04T01:05:18.772Z,2.60
2022-10-04T01:08:10.084Z,2.50
2022-10-04T01:10:51.447Z,2.20
2022-10-04T01:13:22.233Z,2.60
2022-10-04T01:16:20.390Z,2.90
2022-10-04T01:18:50.072Z,2.40
2022-10-04T01:21:30.223Z,2.90
2022-10-04T01:24:03.022Z,2.40
2022-10-04T01:26:37.668Z,2.90
2022-10-04T01:29:18.202Z,2.90
2022-10-04T01:31:55.378Z,2.90
2022-10-04T01:34:34.617Z,2.80
2022-10-04T01:37:06.893Z,2.80
2022-10-04T01:39:36.412Z,3.30
2022-10-04T01:42:21.572Z,2.30
2022-10-04T01:45:14.835Z,2.50
2022-10-04T01:48:02.102Z,2.80
2022-10-04T01:50:43.067Z,2.50
2022-10-04T01:53:23.072Z,7.10
2022-10-04T01:58:29.697Z,2.70
2022-10-04T02:01:11.401Z,4.30
2022-10-04T02:04:06.272Z,2.50
2022-10-04T02:06:53.165Z,2.90
2022-10-04T02:09:36.432Z,2.40
2022-10-04T02:12:09.905Z,2.30
2022-10-04T02:14:44.595Z,3.00
2022-10-04T02:17:16.282Z,2.80
2022-10-04T02:19:46.305Z,2.70
2022-10-04T02:22:19.602Z,2.50
2022-10-04T02:24:54.412Z,2.50
2022-10-04T02:27:36.213Z,3.10
2022-10-04T02:30:10.381Z,2.80
2022-10-04T02:32:58.792Z,3.00
2022-10-04T02:35:35.255Z,2.60
2022-10-04T02:38:32.639Z,2.90
2022-10-04T02:41:26.195Z,3.00
2022-10-04T02:44:14.643Z,2.50
2022-10-04T02:47:01.226Z,2.90
2022-10-04T02:49:38.963Z,3.50
2022-10-04T02:52:23.804Z,2.40
2022-10-04T02:55:19.043Z,2.90
2022-10-04T02:57:52.879Z,2.70
2022-10-04T03:00:26.272Z,2.70
2022-10-04T03:03:17.067Z,2.40
2022-10-04T03:06:00.343Z,2.40
2022-10-04T03:08:34.465Z,2.80
2022-10-04T03:11:05.620Z,3.10
2022-10-04T03:13:43.193Z,3.80
2022-10-04T03:16:25.179Z,1.80
2022-10-04T03:19:01.067Z,2.80
2022-10-04T03:21:37.913Z,2.40
2022-10-04T03:24:31.492Z,2.80
2022-10-04T03:27:22.907Z,2.50
2022-10-04T03:29:59.718Z,2.70
2022-10-04T03:32:33.083Z,2.70
2022-10-04T03:35:11.603Z,7.20
2022-10-04T03:37:47.438Z,2.60
2022-10-04T03:40:28.028Z,2.80
2022-10-04T03:42:58.706Z,2.20
2022-10-04T03:45:30.117Z,2.70
2022-10-04T03:48:07.665Z,3.20
2022-10-04T03:51:01.056Z,2.60
2022-10-04T03:53:46.473Z,2.20
2022-10-04T03:56:32.232Z,3.90
2022-10-04T03:59:19.043Z,2.90
2022-10-04T04:01:56.578Z,2.50
2022-10-04T04:04:52.254Z,2.40
2022-10-04T04:07:32.163Z,2.70
2022-10-04T04:10:24.226Z,2.80
2022-10-04T04:12:59.379Z,3.00
2022-10-04T04:15:43.315Z,1.80
2022-10-04T04:18:27.071Z,3.40
2022-10-04T04:21:05.432Z,2.70
2022-10-04T04:24:01.181Z,2.60
2022-10-04T04:26:47.074Z,2.50
2022-10-04T04:34:30.407Z,2.80
2022-10-04T04:37:08.335Z,2.60
2022-10-04T04:39:41.432Z,3.00
2022-10-04T04:42:11.864Z,2.80
2022-10-04T04:44:54.974Z,2.60
2022-10-04T04:47:44.772Z,2.00
2022-10-04T04:50:28.520Z,2.50
2022-10-04T04:53:13.583Z,2.40
2022-10-04T04:56:03.514Z,2.40
2022-10-04T04:58:46.597Z,2.30
2022-10-04T05:01:31.682Z,2.70
2022-10-04T05:04:25.013Z,3.50
2022-10-04T05:07:20.365Z,2.40
2022-10-04T05:10:26.606Z,2.70
2022-10-04T05:12:58.365Z,2.70
2022-10-04T05:15:38.413Z,2.60
2022-10-04T05:18:24.606Z,2.30
2022-10-04T05:23:27.316Z,2.70
2022-10-04T05:26:02.679Z,2.80
2022-10-04T05:28:37.020Z,2.50
2022-10-04T05:33:59.012Z,4.70
2022-10-04T05:36:51.702Z,2.90
2022-10-04T05:39:32.582Z,3.00
2022-10-04T05:42:25.038Z,2.30
2022-10-04T05:44:58.941Z,3.00
2022-10-04T05:47:37.108Z,2.80
2022-10-04T05:50:10.280Z,2.90
2022-10-04T05:52:40.862Z,3.70
2022-10-04T05:55:31.524Z,3.80
2022-10-04T05:58:34.853Z,3.90
2022-10-04T06:01:36.093Z,2.90
2022-10-04T06:04:33.943Z,2.80
2022-10-04T06:07:47.753Z,2.40
2022-10-04T06:10:44.734Z,2.20
2022-10-04T06:13:26.564Z,12.60
2022-10-04T06:16:22.296Z,8.50
2022-10-04T06:19:22.167Z,8.30
2022-10-04T06:21:54.644Z,6.40
2022-10-04T06:24:35.302Z,13.80
2022-10-04T06:27:26.930Z,5.60
2022-10-04T06:30:26.512Z,3.80
2022-10-04T06:33:28.812Z,3.60
2022-10-04T06:36:15.423Z,3.10
2022-10-04T06:38:57.340Z,2.90
2022-10-04T06:41:43.468Z,3.20
2022-10-04T06:44:32.373Z,2.60
2022-10-04T06:47:12.593Z,2.60
2022-10-04T06:52:27.949Z,2.90
2022-10-04T06:55:28.274Z,2.40
2022-10-04T06:58:10.143Z,2.60
2022-10-04T07:01:03.561Z,2.80
2022-10-04T07:03:51.595Z,2.60
2022-10-04T07:07:23.825Z,2.80
2022-10-04T07:10:21.493Z,2.40
2022-10-04T07:13:34.313Z,2.40
2022-10-04T07:17:15.193Z,2.40
2022-10-04T07:20:14.187Z,2.00
2022-10-04T07:22:54.081Z,3.00
2022-10-04T07:25:51.905Z,3.90
2022-10-04T07:28:48.035Z,2.50
2022-10-04T07:31:53.893Z,3.60
2022-10-04T07:34:31.166Z,3.00
2022-10-04T07:37:13.702Z,2.70
2022-10-04T07:39:55.225Z,3.00
2022-10-04T07:43:00.633Z,2.80
2022-10-04T07:45:42.254Z,3.50
2022-10-04T07:48:24.006Z,3.80
2022-10-04T07:51:06.525Z,4.00
2022-10-04T07:54:14.246Z,2.90
2022-10-04T07:57:00.623Z,3.00
2022-10-04T07:59:42.523Z,3.60
2022-10-04T08:02:33.827Z,3.90
2022-10-04T08:05:36.315Z,3.50
2022-10-04T08:09:02.283Z,3.10
2022-10-04T08:12:09.527Z,4.10
2022-10-04T08:14:56.555Z,2.30
2022-10-04T08:18:03.287Z,2.50
2022-10-04T08:21:08.298Z,3.70
2022-10-04T08:24:04.506Z,6.10
2022-10-04T08:27:06.164Z,3.70
2022-10-04T08:29:49.393Z,3.20
2022-10-04T08:32:31.276Z,3.70
2022-10-04T08:35:29.817Z,4.70
2022-10-04T08:38:11.349Z,5.10
2022-10-04T08:41:19.874Z,4.00
2022-10-04T08:44:28.185Z,7.00
2022-10-04T08:47:31.074Z,8.50
2022-10-04T08:50:20.453Z,5.20
2022-10-04T08:53:18.214Z,3.80
2022-10-04T08:56:18.286Z,4.90
2022-10-04T08:59:13.353Z,8.40
2022-10-04T09:02:10.907Z,6.30
2022-10-04T09:05:15.734Z,12.00
2022-10-04T09:07:58.491Z,3.70
2022-10-04T09:10:45.369Z,7.20
2022-10-04T09:13:18.161Z,5.90
2022-10-04T09:16:15.742Z,3.90
2022-10-04T09:19:12.450Z,5.80
2022-10-04T09:21:59.420Z,2.90
2022-10-04T09:24:35.009Z,3.10
2022-10-04T09:27:57.258Z,3.50
2022-10-04T09:30:48.249Z,5.80
2022-10-04T09:33:38.665Z,4.00
2022-10-04T09:36:19.921Z,3.90
2022-10-04T09:39:29.481Z,5.80
2022-10-04T09:42:34.365Z,4.90
2022-10-04T09:45:22.059Z,2.70
2022-10-04T09:48:23.236Z,2.30
2022-10-04T09:51:20.563Z,3.40
2022-10-04T09:57:01.982Z,3.00
2022-10-04T10:00:02.705Z,2.80
2022-10-04T10:02:31.956Z,3.60
2022-10-04T10:05:28.142Z,3.10
2022-10-04T10:08:31.444Z,3.00
2022-10-04T10:11:30.440Z,2.70
2022-10-04T10:14:12.110Z,2.80
2022-10-04T10:16:53.876Z,8.40
2022-10-04T10:19:44.633Z,2.80
2022-10-04T10:22:29.590Z,2.30
2022-10-04T10:25:53.078Z,3.90
2022-10-04T10:28:59.532Z,3.70
2022-10-04T10:31:52.039Z,2.10
2022-10-04T10:34:46.293Z,4.10
2022-10-04T10:37:28.570Z,3.70
2022-10-04T10:40:17.515Z,2.80
2022-10-04T10:42:56.041Z,3.90
2022-10-04T10:45:48.483Z,3.30
2022-10-04T10:48:44.822Z,4.50
2022-10-04T10:51:26.642Z,3.80
2022-10-04T10:54:19.786Z,2.70
2022-10-04T10:57:07.092Z,5.10
2022-10-04T11:00:14.715Z,2.30
2022-10-04T11:03:22.695Z,3.60
2022-10-04T11:06:14.955Z,3.20
2022-10-04T11:09:21.928Z,3.80
2022-10-04T11:12:16.094Z,3.20
2022-10-04T11:15:29.949Z,2.90
2022-10-04T11:18:35.917Z,4.10
2022-10-04T11:21:22.357Z,6.20
2022-10-04T11:24:05.443Z,3.00
2022-10-04T11:27:05.366Z,4.80
2022-10-04T11:30:09.589Z,4.00
2022-10-04T11:33:29.986Z,5.90
2022-10-04T11:36:36.458Z,3.60
2022-10-04T11:39:34.114Z,2.90
2022-10-04T11:42:12.832Z,3.10
2022-10-04T11:45:19.921Z,4.60
2022-10-04T11:48:12.672Z,5.80
2022-10-04T11:51:03.982Z,4.20
2022-10-04T11:54:08.608Z,6.80
2022-10-04T11:56:49.712Z,5.90
2022-10-04T11:59:40.192Z,5.20
2022-10-04T12:02:40.100Z,3.80
2022-10-04T12:05:21.802Z,6.20
2022-10-04T12:08:02.673Z,6.00
2022-10-04T12:10:55.282Z,3.60
2022-10-04T12:13:53.802Z,5.50
2022-10-04T12:16:59.252Z,6.20
2022-10-04T12:19:37.911Z,4.10
2022-10-04T12:22:39.632Z,4.00
2022-10-04T12:25:41.093Z,6.10
2022-10-04T12:28:31.665Z,8.20
2022-10-04T12:31:46.016Z,7.00
2022-10-04T12:34:28.872Z,6.40
2022-10-04T12:37:23.352Z,9.10
2022-10-04T12:40:20.204Z,8.70
2022-10-04T12:43:15.923Z,8.90
2022-10-04T12:46:12.919Z,7.20
2022-10-04T12:51:53.352Z,8.90
2022-10-04T12:54:46.539Z,8.40
2022-10-04T12:57:21.552Z,11.20
2022-10-04T13:00:06.316Z,9.90
2022-10-04T13:03:13.193Z,13.40
2022-10-04T13:05:51.296Z,15.80
2022-10-04T13:08:38.630Z,17.60
2022-10-04T13:11:37.720Z,14.80
2022-10-04T13:14:29.042Z,12.80
2022-10-04T13:20:26.881Z,14.90
2022-10-04T13:23:26.652Z,9.60
2022-10-04T13:26:17.336Z,13.50
2022-10-04T13:29:03.680Z,13.50
2022-10-04T13:31:39.789Z,12.00
2022-10-04T13:37:25.649Z,16.60
2022-10-04T13:40:33.214Z,19.40
2022-10-04T13:43:34.803Z,23.20
2022-10-04T13:46:20.973Z,17.90
2022-10-04T13:48:59.238Z,18.80
2022-10-04T13:51:35.762Z,18.70
2022-10-04T13:54:47.550Z,15.00
2022-10-04T13:57:41.726Z,18.10
2022-10-04T14:00:21.209Z,20.40
2022-10-04T14:03:09.070Z,13.10
2022-10-04T14:06:07.794Z,21.90
2022-10-04T14:08:37.557Z,28.10
2022-10-04T14:11:09.820Z,30.20
2022-10-04T14:13:49.817Z,23.20
2022-10-04T14:16:41.020Z,34.30
2022-10-04T14:19:47.905Z,25.50
2022-10-04T14:22:38.160Z,26.70
2022-10-04T14:25:48.590Z,24.90
2022-10-04T14:28:46.169Z,34.10
2022-10-04T14:31:37.267Z,21.40
2022-10-04T14:34:44.648Z,24.50
2022-10-04T14:37:47.540Z,25.10
2022-10-04T14:40:46.336Z,31.90
2022-10-04T14:43:21.738Z,30.30
2022-10-04T14:45:51.024Z,31.10
2022-10-04T14:48:44.241Z,34.40
2022-10-04T14:51:30.737Z,27.70
2022-10-04T14:54:13.567Z,29.40
2022-10-04T14:57:34.777Z,29.20
2022-10-04T15:00:19.666Z,25.60
2022-10-04T15:03:05.874Z,29.90
2022-10-04T15:06:07.478Z,24.00
2022-10-04T15:08:48.777Z,29.50
2022-10-04T15:11:40.617Z,28.30
2022-10-04T15:14:28.547Z,27.70
2022-10-04T15:17:01.326Z,28.60
2022-10-04T15:20:01.455Z,22.80
2022-10-04T15:22:44.910Z,18.30
2022-10-04T15:25:42.341Z,26.50
2022-10-04T15:28:42.275Z,22.00
2022-10-04T15:31:21.076Z,30.40
2022-10-04T15:34:15.361Z,26.30
2022-10-04T15:37:10.887Z,21.20
2022-10-04T15:40:16.338Z,30.90
2022-10-04T15:43:19.596Z,30.20
2022-10-04T15:46:36.073Z,32.60
2022-10-04T15:49:26.657Z,26.60
2022-10-04T15:52:15.392Z,32.20
2022-10-04T15:55:22.368Z,31.10
2022-10-04T15:58:25.583Z,27.30
2022-10-04T16:01:13.946Z,27.70
2022-10-04T16:04:15.786Z,42.90
2022-10-04T16:06:57.182Z,32.20
2022-10-04T16:10:06.619Z,29.00
2022-10-04T16:13:07.649Z,25.20
2022-10-04T16:15:41.894Z,24.90
2022-10-04T16:18:27.856Z,26.90
2022-10-04T16:21:18.973Z,31.70
2022-10-04T16:26:21.897Z,25.30
2022-10-04T16:29:15.653Z,25.10
2022-10-04T16:31:47.755Z,28.20
2022-10-04T16:34:28.892Z,30.10
2022-10-04T16:37:19.183Z,22.40
2022-10-04T16:40:01.301Z,32.00
2022-10-04T16:43:09.711Z,39.10
2022-10-04T16:46:16.767Z,27.50
2022-10-04T16:48:57.884Z,26.20
2022-10-04T16:51:40.965Z,29.20
2022-10-04T16:55:02.033Z,38.70
2022-10-04T16:57:31.950Z,27.30
2022-10-04T17:00:41.178Z,20.40
2022-10-04T17:03:30.996Z,26.50
2022-10-04T17:06:42.748Z,21.20
2022-10-04T17:09:18.544Z,25.30
2022-10-04T17:12:06.085Z,27.00
2022-10-04T17:14:56.506Z,32.50
2022-10-04T17:17:38.918Z,31.50
2022-10-04T17:20:26.979Z,23.60
2022-10-04T17:23:08.026Z,30.70
2022-10-04T17:25:52.826Z,36.80
2022-10-04T17:28:35.558Z,28.50
2022-10-04T17:31:15.076Z,22.70
2022-10-04T17:34:22.275Z,26.30
2022-10-04T17:36:59.300Z,37.50
2022-10-04T17:39:40.899Z,31.70
2022-10-04T17:42:17.288Z,31.50
2022-10-04T17:45:14.639Z,30.50
2022-10-04T17:48:19.786Z,28.00
2022-10-04T17:51:18.275Z,28.60
2022-10-04T17:54:13.678Z,30.80
2022-10-04T17:56:51.242Z,28.10
2022-10-04T17:59:31.004Z,29.30
2022-10-04T18:02:41.658Z,25.50
2022-10-04T18:05:27.821Z,27.50
2022-10-04T18:08:29.229Z,25.30
2022-10-04T18:11:29.968Z,30.30
2022-10-04T18:14:06.015Z,35.20
2022-10-04T18:16:48.305Z,24.80
2022-10-04T18:19:42.223Z,28.50
2022-10-04T18:22:22.435Z,29.60
2022-10-04T18:25:16.548Z,32.30
2022-10-04T18:28:08.352Z,27.30
2022-10-04T18:30:50.412Z,29.40
2022-10-04T18:33:26.810Z,30.00
2022-10-04T18:36:07.112Z,29.10
2022-10-04T18:38:37.339Z,28.00
2022-10-04T18:41:24.022Z,41.10
2022-10-04T18:44:00.341Z,26.40
2022-10-04T18:46:39.264Z,24.20
2022-10-04T18:49:25.933Z,27.20
2022-10-04T18:52:15.113Z,28.80
2022-10-04T18:55:06.223Z,26.20
2022-10-04T18:58:11.769Z,26.90
2022-10-04T19:01:12.762Z,34.20
2022-10-04T19:03:53.902Z,30.00
2022-10-04T19:06:30.889Z,27.30
2022-10-04T19:09:27.822Z,30.60
2022-10-04T19:12:04.381Z,29.80
2022-10-04T19:14:44.037Z,28.80
2022-10-04T19:17:36.483Z,26.10
2022-10-04T19:20:34.344Z,28.80
2022-10-04T19:23:07.683Z,28.20
2022-10-04T19:26:29.966Z,26.00
2022-10-04T19:29:16.480Z,27.80
2022-10-04T19:32:00.538Z,29.70
2022-10-04T19:35:04.915Z,26.60
2022-10-04T19:37:47.826Z,27.00
2022-10-04T19:40:52.423Z,19.70
2022-10-04T19:43:53.658Z,26.50
2022-10-04T19:46:36.155Z,31.30
2022-10-04T19:49:26.235Z,30.00
2022-10-04T19:52:23.107Z,31.90
2022-10-04T19:54:59.493Z,26.20
2022-10-04T19:57:39.818Z,24.90
2022-10-04T20:00:20.618Z,28.80
2022-10-04T20:02:50.592Z,27.40
2022-10-04T20:05:25.518Z,26.60
2022-10-04T20:08:06.112Z,33.30
2022-10-04T20:10:37.273Z,26.50
2022-10-04T20:13:27.062Z,31.20
2022-10-04T20:16:00.484Z,26.20
2022-10-04T20:18:33.322Z,27.20
2022-10-04T20:21:03.867Z,22.10
2022-10-04T20:23:39.728Z,25.80
2022-10-04T20:26:54.177Z,31.00
2022-10-04T20:29:40.317Z,23.10
2022-10-04T20:32:13.965Z,29.70
2022-10-04T20:34:43.390Z,27.90
2022-10-04T20:37:14.844Z,23.00
2022-10-04T20:39:43.949Z,25.30
2022-10-04T20:42:35.874Z,27.70
2022-10-04T20:45:23.358Z,25.20
2022-10-04T20:47:58.613Z,24.40
2022-10-04T20:50:32.641Z,26.30
2022-10-04T20:55:39.385Z,30.00
2022-10-04T20:58:32.365Z,21.60
2022-10-04T21:01:39.507Z,23.10
2022-10-04T21:04:42.248Z,22.70
2022-10-04T21:07:23.215Z,29.40
2022-10-04T21:09:54.398Z,25.70
2022-10-04T21:12:41.782Z,23.50
2022-10-04T21:15:17.311Z,24.30
2022-10-04T21:18:12.622Z,26.90
2022-10-04T21:20:49.118Z,23.40
2022-10-04T21:23:23.637Z,23.60
2022-10-04T21:26:25.813Z,32.10
2022-10-04T21:28:59.193Z,29.70
2022-10-04T21:31:28.542Z,25.30
2022-10-04T21:33:57.573Z,29.90
2022-10-04T21:36:26.812Z,30.00
2022-10-04T21:38:58.552Z,30.60
2022-10-04T21:41:31.319Z,28.30
2022-10-04T21:44:00.597Z,24.60
2022-10-04T21:46:30.103Z,22.10
2022-10-04T21:48:59.745Z,31.90
2022-10-04T21:51:32.620Z,24.30
2022-10-04T21:54:02.320Z,29.80
2022-10-04T21:56:31.966Z,24.50
2022-10-04T21:59:01.207Z,24.10
2022-10-04T22:01:33.492Z,20.20
2022-10-04T22:04:09.284Z,24.40
2022-10-04T22:06:41.240Z,24.90
2022-10-04T22:09:11.158Z,14.50
2022-10-04T22:11:40.443Z,19.20
2022-10-04T22:14:12.524Z,20.90
2022-10-04T22:16:45.217Z,23.70
2022-10-04T22:19:20.454Z,13.30
2022-10-04T22:21:52.915Z,13.60
2022-10-04T22:24:31.534Z,19.10
2022-10-04T22:27:15.782Z,19.80
2022-10-04T22:30:00.759Z,12.80
2022-10-04T22:32:30.433Z,18.10
2022-10-04T22:35:12.037Z,13.40
2022-10-04T22:37:42.660Z,20.10
2022-10-04T22:40:27.846Z,15.00
2022-10-04T22:43:04.728Z,17.90
2022-10-04T22:45:42.892Z,12.40
2022-10-04T22:48:18.515Z,10.00
2022-10-04T22:50:54.028Z,14.30
2022-10-04T22:53:29.307Z,13.90
2022-10-04T22:56:02.052Z,15.60
2022-10-04T22:58:39.353Z,13.30
2022-10-04T23:01:17.923Z,12.00
2022-10-04T23:03:59.441Z,14.70
2022-10-04T23:06:34.467Z,13.40
2022-10-04T23:09:11.063Z,14.90
2022-10-04T23:11:43.751Z,14.60
2022-10-04T23:14:22.973Z,15.90
2022-10-04T23:16:52.465Z,11.20
2022-10-04T23:19:25.563Z,15.40
2022-10-04T23:21:55.074Z,15.40
2022-10-04T23:24:31.083Z,12.60
2022-10-04T23:27:04.633Z,15.70
2022-10-04T23:29:36.293Z,15.10
2022-10-04T23:32:20.028Z,17.20
2022-10-04T23:34:56.440Z,17.10
2022-10-04T23:37:30.973Z,13.40
2022-10-04T23:40:03.401Z,10.40
2022-10-04T23:42:37.965Z,13.30
2022-10-04T23:45:18.622Z,16.30
2022-10-04T23:47:56.062Z,11.70
2022-10-04T23:50:38.072Z,14.90
2022-10-04T23:53:34.004Z,16.80
2022-10-04T23:56:20.092Z,10.50
2022-10-04T23:58:52.076Z,11.00
